Time;durP1;ratioP1;P1;durP2;ratioP2;P2;SDS_P1;SDS_P2;PMS_P1;PMS_P2;Temp;Humidity;BMP_temperature;BMP_pressure;BME280_temperature;BME280_humidity;BME280_pressure;Samples;Min_cycle;Max_cycle;Signal;HPM_P1;HPM_P2
2023/03/30 00:02:07;;;;;;;7.63;5.75;;;11.80;93.90;;;;;;5040176;28;20041;-74
2023/03/30 00:04:33;;;;;;;8.60;6.05;;;11.80;93.90;;;;;;5030448;28;20652;-75
2023/03/30 00:06:59;;;;;;;9.60;6.13;;;11.80;94.00;;;;;;5027516;28;20096;-74
2023/03/30 00:09:29;;;;;;;8.20;6.18;;;11.80;94.10;;;;;;5023612;28;20101;-74
2023/03/30 00:11:55;;;;;;;7.78;6.03;;;11.80;94.10;;;;;;5028895;28;20060;-73
2023/03/30 00:14:28;;;;;;;9.93;6.47;;;11.80;94.10;;;;;;5029159;28;20061;-74
2023/03/30 00:16:54;;;;;;;7.32;5.78;;;11.80;94.20;;;;;;5030861;28;20065;-74
2023/03/30 00:19:20;;;;;;;7.32;5.43;;;11.80;94.20;;;;;;5030840;28;20389;-74
2023/03/30 00:21:46;;;;;;;7.30;5.95;;;11.90;94.30;;;;;;5018520;28;20045;-73
2023/03/30 00:24:12;;;;;;;8.18;6.03;;;11.80;94.40;;;;;;5021022;28;20497;-74
2023/03/30 00:26:38;;;;;;;7.53;5.97;;;11.80;94.50;;;;;;5018733;28;20033;-74
2023/03/30 00:29:03;;;;;;;8.35;6.45;;;11.80;94.60;;;;;;5020315;28;20030;-74
2023/03/30 00:31:29;;;;;;;7.80;6.32;;;11.80;94.70;;;;;;5018850;28;20529;-75
2023/03/30 00:33:55;;;;;;;9.63;6.05;;;11.80;94.80;;;;;;5022304;28;20037;-75
2023/03/30 00:36:21;;;;;;;7.70;6.00;;;11.80;94.90;;;;;;5019919;28;20385;-75
2023/03/30 00:38:47;;;;;;;8.65;6.55;;;11.70;95.00;;;;;;5026509;28;20505;-75
2023/03/30 00:41:13;;;;;;;12.38;6.72;;;11.70;95.10;;;;;;5017907;28;20477;-75
2023/03/30 00:43:59;;;;;;;7.50;6.35;;;11.70;95.20;;;;;;5022314;28;20038;-76
2023/03/30 00:46:25;;;;;;;7.60;5.72;;;11.70;95.30;;;;;;5013232;28;20029;-75
2023/03/30 00:48:56;;;;;;;9.27;6.90;;;11.70;95.60;;;;;;5020616;28;20409;-76
2023/03/30 00:51:22;;;;;;;8.55;6.50;;;11.70;95.50;;;;;;5024946;28;20496;-75
2023/03/30 00:53:51;;;;;;;7.82;5.75;;;11.70;95.50;;;;;;5025346;28;20033;-75
2023/03/30 00:56:21;;;;;;;7.28;5.95;;;11.60;95.60;;;;;;5013445;28;20065;-75
2023/03/30 00:58:48;;;;;;;7.20;6.20;;;11.60;95.70;;;;;;5014209;28;20068;-74
2023/03/30 01:01:24;;;;;;;8.68;6.68;;;11.60;95.80;;;;;;5015867;28;20041;-75
2023/03/30 01:03:51;;;;;;;6.88;5.78;;;11.60;96.10;;;;;;5016751;28;20038;-74
2023/03/30 01:06:20;;;;;;;7.90;6.20;;;11.60;95.90;;;;;;5017474;28;20026;-73
2023/03/30 01:08:46;;;;;;;7.45;6.07;;;11.60;96.20;;;;;;5024166;28;20176;-74
2023/03/30 01:11:12;;;;;;;8.23;6.72;;;11.60;96.10;;;;;;5014296;28;20044;-73
2023/03/30 01:13:43;;;;;;;7.03;5.43;;;11.60;96.10;;;;;;5034745;28;20022;-74
2023/03/30 01:16:34;;;;;;;9.90;6.38;;;11.50;96.20;;;;;;5022592;28;20033;-74
2023/03/30 01:19:06;;;;;;;8.30;6.05;;;11.50;96.30;;;;;;5014469;28;20033;-74
2023/03/30 01:22:16;;;;;;;8.48;6.38;;;11.50;96.30;;;;;;5027714;28;20061;-73
2023/03/30 01:25:01;;;;;;;7.28;5.55;;;11.50;96.40;;;;;;5035071;28;20109;-73
2023/03/30 01:27:44;;;;;;;8.45;6.32;;;11.50;96.50;;;;;;5025272;28;20034;-73
2023/03/30 01:30:32;;;;;;;8.25;6.38;;;11.40;96.60;;;;;;5026654;28;20062;-74
2023/03/30 01:33:27;;;;;;;8.63;6.10;;;11.40;96.70;;;;;;5018702;28;20155;-74
2023/03/30 01:36:31;;;;;;;9.30;6.28;;;11.40;96.70;;;;;;5012397;28;20065;-74
2023/03/30 01:39:09;;;;;;;9.07;6.63;;;11.40;96.70;;;;;;5011751;28;20079;-73
2023/03/30 01:41:48;;;;;;;11.15;7.13;;;11.40;96.80;;;;;;5018553;28;20030;-73
2023/03/30 01:44:39;;;;;;;9.13;5.97;;;11.40;96.90;;;;;;5035168;28;20029;-73
2023/03/30 01:47:34;;;;;;;8.88;6.18;;;11.40;96.90;;;;;;5020922;28;20113;-73
2023/03/30 01:50:04;;;;;;;10.05;6.55;;;11.40;97.00;;;;;;5023739;28;20037;-75
2023/03/30 01:53:07;;;;;;;10.13;6.18;;;11.30;97.00;;;;;;5029439;28;20055;-75
2023/03/30 01:55:45;;;;;;;8.88;5.82;;;11.30;97.20;;;;;;5026907;28;20041;-76
2023/03/30 01:58:30;;;;;;;6.88;6.05;;;11.30;97.30;;;;;;5033114;28;20049;-75
2023/03/30 02:00:57;;;;;;;9.38;6.35;;;11.30;97.30;;;;;;5028953;28;20045;-77
2023/03/30 02:03:31;;;;;;;8.80;6.20;;;11.30;97.30;;;;;;5026689;28;20046;-76
2023/03/30 02:06:23;;;;;;;8.00;6.20;;;11.30;97.50;;;;;;5012117;28;20391;-76
2023/03/30 02:08:53;;;;;;;8.73;5.70;;;11.30;97.50;;;;;;5033223;28;20030;-76
2023/03/30 02:11:19;;;;;;;8.27;6.22;;;11.30;97.50;;;;;;5031378;28;20029;-76
2023/03/30 02:13:46;;;;;;;9.68;6.45;;;11.30;97.50;;;;;;5016802;28;20030;-76
2023/03/30 02:16:18;;;;;;;9.35;6.57;;;11.30;97.60;;;;;;5027688;28;20046;-76
2023/03/30 02:18:44;;;;;;;7.55;5.75;;;11.30;97.60;;;;;;5024244;28;20026;-77
2023/03/30 02:21:11;;;;;;;8.88;6.25;;;11.30;97.60;;;;;;5028678;28;20030;-76
2023/03/30 02:23:41;;;;;;;8.77;6.00;;;11.30;97.70;;;;;;5020186;28;20069;-76
2023/03/30 02:26:08;;;;;;;7.90;6.70;;;11.30;97.70;;;;;;5025497;28;20040;-76
2023/03/30 02:28:34;;;;;;;10.88;6.07;;;11.30;97.80;;;;;;5038495;28;20064;-76
2023/03/30 02:31:00;;;;;;;7.75;6.30;;;11.30;97.80;;;;;;5012293;28;20061;-76
2023/03/30 02:33:52;;;;;;;9.10;6.05;;;11.40;97.90;;;;;;5019743;28;20026;-76
2023/03/30 02:36:33;;;;;;;8.77;5.70;;;11.30;98.00;;;;;;5011466;28;20030;-76
2023/03/30 02:39:26;;;;;;;9.68;6.57;;;11.30;98.00;;;;;;5018729;28;20052;-76
2023/03/30 02:42:22;;;;;;;9.25;6.55;;;11.30;98.10;;;;;;5014330;28;20033;-76
2023/03/30 02:45:01;;;;;;;9.00;6.45;;;11.30;98.10;;;;;;5027501;28;20025;-76
2023/03/30 02:48:18;;;;;;;7.97;6.35;;;11.30;98.10;;;;;;5020016;28;20386;-76
2023/03/30 02:51:13;;;;;;;9.77;5.93;;;11.30;98.10;;;;;;5031329;28;21708;-76
2023/03/30 02:53:51;;;;;;;8.38;5.82;;;11.30;98.10;;;;;;5018960;28;20056;-76
2023/03/30 02:56:27;;;;;;;8.23;5.80;;;11.30;98.10;;;;;;5014355;28;20044;-76
2023/03/30 02:59:13;;;;;;;7.63;5.95;;;11.30;98.20;;;;;;5013614;28;20080;-76
2023/03/30 03:01:44;;;;;;;7.93;6.03;;;11.30;98.20;;;;;;5027775;28;20042;-76
2023/03/30 03:04:11;;;;;;;8.55;6.70;;;11.20;98.30;;;;;;5017523;28;20030;-76
2023/03/30 03:06:38;;;;;;;10.80;6.97;;;11.30;98.40;;;;;;5032777;28;20029;-76
2023/03/30 03:09:04;;;;;;;10.07;6.22;;;11.20;98.40;;;;;;5016859;28;20125;-76
2023/03/30 03:11:30;;;;;;;8.85;6.10;;;11.30;98.50;;;;;;5014958;28;20116;-76
2023/03/30 03:13:56;;;;;;;8.15;6.15;;;11.20;98.50;;;;;;5014408;28;20117;-76
2023/03/30 03:16:21;;;;;;;9.15;6.68;;;11.30;98.50;;;;;;5032163;28;20476;-76
2023/03/30 03:18:48;;;;;;;9.60;6.50;;;11.20;98.50;;;;;;5018069;28;20030;-77
2023/03/30 03:21:14;;;;;;;8.85;6.70;;;11.30;98.80;;;;;;5032732;28;20387;-77
2023/03/30 03:23:40;;;;;;;9.45;6.55;;;11.30;98.60;;;;;;5019433;28;20030;-76
2023/03/30 03:26:06;;;;;;;7.68;6.35;;;11.30;98.60;;;;;;5025151;28;20029;-76
2023/03/30 03:28:32;;;;;;;11.63;6.68;;;11.30;98.60;;;;;;5029870;28;20037;-76
2023/03/30 03:30:58;;;;;;;10.00;7.25;;;11.30;98.60;;;;;;5019132;28;20053;-76
2023/03/30 03:33:26;;;;;;;9.38;6.93;;;11.30;98.70;;;;;;5031185;28;20057;-76
2023/03/30 03:35:58;;;;;;;7.03;5.70;;;11.30;98.90;;;;;;5024728;28;20042;-74
2023/03/30 03:38:28;;;;;;;9.13;6.55;;;11.30;98.70;;;;;;5021402;28;20052;-75
2023/03/30 03:40:56;;;;;;;10.68;6.90;;;11.30;98.70;;;;;;5024604;28;20034;-74
2023/03/30 03:43:21;;;;;;;15.20;6.38;;;11.30;98.80;;;;;;5026832;28;20065;-75
2023/03/30 03:45:49;;;;;;;9.77;6.90;;;11.30;98.80;;;;;;5027573;28;20041;-75
2023/03/30 03:48:15;;;;;;;9.68;7.05;;;11.20;98.80;;;;;;5029974;28;20021;-74
2023/03/30 03:50:42;;;;;;;10.95;7.40;;;11.30;98.90;;;;;;5020327;28;20044;-74
2023/03/30 03:53:08;;;;;;;10.35;7.00;;;11.30;98.90;;;;;;5043886;28;20069;-74
2023/03/30 03:55:34;;;;;;;8.77;6.95;;;11.30;98.90;;;;;;5032707;28;20029;-74
2023/03/30 03:58:01;;;;;;;9.88;7.47;;;11.30;98.90;;;;;;5012333;28;20026;-75
2023/03/30 04:00:28;;;;;;;10.65;7.65;;;11.30;98.90;;;;;;5015002;28;20046;-74
2023/03/30 04:02:53;;;;;;;10.77;7.50;;;11.30;98.90;;;;;;5028309;28;20546;-75
2023/03/30 04:05:19;;;;;;;9.85;7.60;;;11.30;99.00;;;;;;5017343;28;20120;-74
2023/03/30 04:07:45;;;;;;;11.27;7.60;;;11.30;99.00;;;;;;5028885;28;20057;-74
2023/03/30 04:10:12;;;;;;;10.90;7.25;;;11.30;99.00;;;;;;5018901;28;20036;-74
2023/03/30 04:12:38;;;;;;;10.85;7.68;;;11.30;99.10;;;;;;5017667;28;20088;-74
2023/03/30 04:15:05;;;;;;;9.10;6.40;;;11.30;99.10;;;;;;5016878;28;20033;-74
2023/03/30 04:17:34;;;;;;;10.32;6.80;;;11.30;99.10;;;;;;5030237;28;20033;-74
2023/03/30 04:20:03;;;;;;;9.43;6.55;;;11.30;99.10;;;;;;5023656;28;20048;-74
2023/03/30 04:22:31;;;;;;;9.40;6.82;;;11.30;99.10;;;;;;5020963;28;20041;-75
2023/03/30 04:24:58;;;;;;;10.30;6.82;;;11.30;99.10;;;;;;5024181;28;20115;-73
2023/03/30 04:27:24;;;;;;;11.48;6.72;;;11.30;99.20;;;;;;5032552;28;20080;-75
2023/03/30 04:29:50;;;;;;;11.55;7.15;;;11.30;99.20;;;;;;5021654;28;20114;-74
2023/03/30 04:32:19;;;;;;;11.75;8.07;;;11.30;99.20;;;;;;5020122;28;20041;-75
2023/03/30 04:34:46;;;;;;;10.57;7.22;;;11.30;99.20;;;;;;5033551;28;20104;-74
2023/03/30 04:37:17;;;;;;;8.95;6.75;;;11.30;99.20;;;;;;5035630;28;20026;-74
2023/03/30 04:39:43;;;;;;;10.18;7.15;;;11.30;99.30;;;;;;5031079;28;20061;-74
2023/03/30 04:42:13;;;;;;;10.15;7.45;;;11.30;99.30;;;;;;5023230;28;20219;-74
2023/03/30 04:44:41;;;;;;;10.73;7.10;;;11.30;99.20;;;;;;5029960;28;20064;-74
2023/03/30 04:47:07;;;;;;;11.98;7.35;;;11.30;99.30;;;;;;5026546;28;20025;-74
2023/03/30 04:49:33;;;;;;;10.70;7.43;;;11.30;99.30;;;;;;5013763;28;20033;-74
2023/03/30 04:51:58;;;;;;;12.65;7.55;;;11.30;99.30;;;;;;5020098;28;20034;-74
2023/03/30 04:54:24;;;;;;;9.50;7.25;;;11.30;99.30;;;;;;5027910;28;20044;-74
2023/03/30 04:56:50;;;;;;;9.02;6.90;;;11.30;99.30;;;;;;5017433;28;20105;-74
2023/03/30 04:59:15;;;;;;;12.40;6.63;;;11.30;99.50;;;;;;5012357;28;20071;-74
2023/03/30 05:01:41;;;;;;;10.68;7.22;;;11.30;99.30;;;;;;5032180;28;20048;-74
2023/03/30 05:04:07;;;;;;;9.60;6.55;;;11.30;99.30;;;;;;5018793;28;20034;-74
2023/03/30 05:06:33;;;;;;;10.65;7.45;;;11.30;99.30;;;;;;5026753;28;20025;-73
2023/03/30 05:08:59;;;;;;;9.57;6.43;;;11.40;99.40;;;;;;5014641;28;20041;-73
2023/03/30 05:11:25;;;;;;;11.13;6.50;;;11.30;99.30;;;;;;5025516;28;20508;-73
2023/03/30 05:13:52;;;;;;;9.55;6.53;;;11.30;99.30;;;;;;5029839;28;20022;-73
2023/03/30 05:16:19;;;;;;;10.85;7.50;;;11.30;99.40;;;;;;5036624;28;20064;-74
2023/03/30 05:18:44;;;;;;;12.38;8.15;;;11.30;99.30;;;;;;5016912;28;20029;-74
2023/03/30 05:21:10;;;;;;;8.48;6.10;;;11.40;99.40;;;;;;5015533;28;20433;-74
2023/03/30 05:23:38;;;;;;;9.45;6.93;;;11.40;99.40;;;;;;5017824;28;20580;-75
2023/03/30 05:26:06;;;;;;;8.02;6.03;;;11.30;99.40;;;;;;5020773;28;20024;-70
2023/03/30 05:28:32;;;;;;;9.77;6.93;;;11.40;99.40;;;;;;5011972;28;20037;-69
2023/03/30 05:30:58;;;;;;;9.20;6.43;;;11.40;99.40;;;;;;5016481;28;20037;-71
2023/03/30 05:33:24;;;;;;;7.82;5.97;;;11.40;99.30;;;;;;5016580;28;20045;-71
2023/03/30 05:35:50;;;;;;;9.57;6.22;;;11.40;99.30;;;;;;5020017;28;20480;-71
2023/03/30 05:38:16;;;;;;;12.63;6.65;;;11.40;99.30;;;;;;5028441;28;20078;-73
2023/03/30 05:40:43;;;;;;;8.23;5.70;;;11.50;99.30;;;;;;5015985;28;20389;-74
2023/03/30 05:43:09;;;;;;;13.13;5.95;;;11.50;99.30;;;;;;5016898;28;20040;-74
2023/03/30 05:45:35;;;;;;;7.38;5.78;;;11.50;99.20;;;;;;5034137;28;20021;-73
2023/03/30 05:48:01;;;;;;;7.50;5.25;;;11.50;99.20;;;;;;5032789;28;20025;-72
2023/03/30 05:50:27;;;;;;;9.18;5.82;;;11.50;99.20;;;;;;5031809;28;20025;-72
2023/03/30 05:52:52;;;;;;;7.68;5.80;;;11.50;99.10;;;;;;5026124;28;20021;-73
2023/03/30 05:55:18;;;;;;;8.27;5.30;;;11.50;99.10;;;;;;5022427;28;20116;-72
2023/03/30 05:57:44;;;;;;;5.82;4.63;;;11.50;99.10;;;;;;5014571;28;20485;-72
2023/03/30 06:00:12;;;;;;;8.48;5.85;;;11.60;99.10;;;;;;5022443;28;20080;-72
2023/03/30 06:02:38;;;;;;;7.03;4.97;;;11.50;99.10;;;;;;5033479;28;20025;-72
2023/03/30 06:05:04;;;;;;;8.15;5.38;;;11.60;99.20;;;;;;5013632;28;20026;-72
2023/03/30 06:07:30;;;;;;;12.13;6.05;;;11.60;99.20;;;;;;5026282;28;20025;-72
2023/03/30 06:09:58;;;;;;;9.02;5.15;;;11.60;99.10;;;;;;5025135;28;20029;-73
2023/03/30 06:12:24;;;;;;;7.72;4.95;;;11.60;99.10;;;;;;5026254;28;20044;-73
2023/03/30 06:14:50;;;;;;;8.75;5.60;;;11.60;99.20;;;;;;5020741;28;20113;-68
2023/03/30 06:17:15;;;;;;;16.30;5.90;;;11.70;99.10;;;;;;5031556;28;20115;-69
2023/03/30 06:19:41;;;;;;;6.30;4.75;;;11.80;99.20;;;;;;5021047;28;20022;-68
2023/03/30 06:22:08;;;;;;;8.10;5.68;;;11.80;99.10;;;;;;5009678;28;20037;-70
2023/03/30 06:24:33;;;;;;;8.15;5.38;;;11.80;99.10;;;;;;5012637;28;20440;-70
2023/03/30 06:27:01;;;;;;;6.82;4.85;;;11.90;99.10;;;;;;5026686;28;20032;-70
2023/03/30 06:29:27;;;;;;;10.48;5.18;;;11.90;99.00;;;;;;5010250;28;20433;-72
2023/03/30 06:31:53;;;;;;;6.70;5.38;;;12.00;99.00;;;;;;5027698;28;20071;-70
2023/03/30 06:34:19;;;;;;;8.70;4.60;;;12.00;99.00;;;;;;5024246;28;20033;-70
2023/03/30 06:36:45;;;;;;;8.25;5.47;;;12.10;98.90;;;;;;5011145;28;20101;-70
2023/03/30 06:39:11;;;;;;;7.22;5.47;;;12.10;99.00;;;;;;5022282;28;20425;-70
2023/03/30 06:41:37;;;;;;;8.93;5.82;;;12.20;98.80;;;;;;5015471;28;20055;-71
2023/03/30 06:44:02;;;;;;;6.93;4.90;;;12.20;98.80;;;;;;5025879;28;20096;-71
2023/03/30 06:46:28;;;;;;;8.02;5.65;;;12.30;98.80;;;;;;5021742;28;20017;-70
2023/03/30 06:48:54;;;;;;;10.02;5.25;;;12.30;98.70;;;;;;5012432;28;20385;-71
2023/03/30 06:51:20;;;;;;;8.77;5.22;;;12.40;98.70;;;;;;5030856;28;20029;-71
2023/03/30 06:53:45;;;;;;;10.45;5.10;;;12.40;98.70;;;;;;5027065;28;20055;-70
2023/03/30 06:56:11;;;;;;;7.53;5.40;;;12.40;98.60;;;;;;5012642;28;20030;-71
2023/03/30 06:58:37;;;;;;;5.93;4.88;;;12.40;98.60;;;;;;5020813;28;20501;-71
2023/03/30 07:01:11;;;;;;;6.82;4.50;;;12.50;98.60;;;;;;5019392;28;20060;-71
2023/03/30 07:03:37;;;;;;;7.05;5.43;;;12.50;98.50;;;;;;5017444;28;20055;-71
2023/03/30 07:06:03;;;;;;;8.13;4.97;;;12.60;98.50;;;;;;5026355;28;20669;-72
2023/03/30 07:08:29;;;;;;;10.45;4.93;;;12.60;98.50;;;;;;5014892;28;20026;-73
2023/03/30 07:10:54;;;;;;;6.57;4.82;;;12.60;98.40;;;;;;5026761;28;20051;-70
2023/03/30 07:13:20;;;;;;;7.03;4.80;;;12.60;98.60;;;;;;5015289;28;20153;-72
2023/03/30 07:15:46;;;;;;;8.68;5.70;;;12.70;98.30;;;;;;5020930;28;20092;-71
2023/03/30 07:18:13;;;;;;;7.55;4.80;;;12.70;98.30;;;;;;5019668;28;20033;-70
2023/03/30 07:20:38;;;;;;;9.80;5.35;;;12.60;98.30;;;;;;5018903;28;20029;-70
2023/03/30 07:23:05;;;;;;;7.80;5.18;;;12.60;98.20;;;;;;5016593;28;20192;-71
2023/03/30 07:25:31;;;;;;;9.70;5.35;;;12.60;98.30;;;;;;5025383;28;20029;-71
2023/03/30 07:27:57;;;;;;;9.63;5.30;;;12.70;98.30;;;;;;5011090;28;20455;-71
2023/03/30 07:30:22;;;;;;;7.68;4.70;;;12.70;98.20;;;;;;5021525;28;20057;-71
2023/03/30 07:32:49;;;;;;;7.68;4.80;;;12.80;98.20;;;;;;5026185;28;20044;-72
2023/03/30 07:35:15;;;;;;;7.53;4.80;;;12.80;98.20;;;;;;5031728;28;20538;-72
2023/03/30 07:37:41;;;;;;;8.98;5.07;;;12.90;98.20;;;;;;5044109;28;20086;-72
2023/03/30 07:40:08;;;;;;;6.68;4.97;;;12.90;98.10;;;;;;5017713;28;20105;-71
2023/03/30 07:42:34;;;;;;;10.13;5.18;;;13.00;98.10;;;;;;5016981;28;20041;-71
2023/03/30 07:44:59;;;;;;;6.35;4.38;;;13.00;98.10;;;;;;5023774;28;20025;-71
2023/03/30 07:47:26;;;;;;;7.88;4.28;;;13.10;98.10;;;;;;5024290;28;20038;-71
2023/03/30 07:49:51;;;;;;;7.53;4.65;;;13.20;98.30;;;;;;5025390;28;20078;-72
2023/03/30 07:52:17;;;;;;;8.88;4.85;;;13.30;98.10;;;;;;5022204;28;20120;-71
2023/03/30 07:54:43;;;;;;;5.75;4.18;;;13.40;98.10;;;;;;5024517;28;20055;-71
2023/03/30 07:57:10;;;;;;;6.97;4.55;;;13.40;98.10;;;;;;5025342;28;20140;-71
2023/03/30 07:59:36;;;;;;;13.52;4.95;;;13.50;98.00;;;;;;5030248;28;20049;-71
2023/03/30 08:02:03;;;;;;;6.80;4.57;;;13.60;97.90;;;;;;5018554;28;20025;-69
2023/03/30 08:04:29;;;;;;;7.63;4.72;;;13.60;97.90;;;;;;5020767;28;20163;-71
2023/03/30 08:06:55;;;;;;;7.28;4.20;;;13.70;97.80;;;;;;5020001;28;20111;-71
2023/03/30 08:09:20;;;;;;;10.18;5.47;;;13.80;97.60;;;;;;5024075;28;20044;-70
2023/03/30 08:11:46;;;;;;;6.40;4.57;;;13.80;97.60;;;;;;5013608;28;20025;-71
2023/03/30 08:14:11;;;;;;;7.35;5.20;;;13.90;97.50;;;;;;5023350;28;20112;-71
2023/03/30 08:16:37;;;;;;;6.57;4.28;;;13.90;97.40;;;;;;5024007;28;20032;-71
2023/03/30 08:19:03;;;;;;;7.75;4.55;;;14.00;97.30;;;;;;5019821;28;20082;-70
2023/03/30 08:21:28;;;;;;;8.80;4.35;;;14.00;97.20;;;;;;5018565;28;20081;-68
2023/03/30 08:23:58;;;;;;;6.90;4.63;;;14.10;97.20;;;;;;5025001;28;20045;-69
2023/03/30 08:26:27;;;;;;;6.10;4.55;;;14.10;97.00;;;;;;5029536;28;20512;-69
2023/03/30 08:28:53;;;;;;;6.20;4.10;;;14.10;97.00;;;;;;5028096;28;20033;-68
2023/03/30 08:31:20;;;;;;;7.70;4.40;;;14.20;97.00;;;;;;5024228;28;20025;-71
2023/03/30 08:33:47;;;;;;;6.57;4.15;;;14.30;96.90;;;;;;5028863;28;20022;-68
2023/03/30 08:36:13;;;;;;;7.28;3.63;;;14.30;96.90;;;;;;5024086;28;20038;-69
2023/03/30 08:38:40;;;;;;;9.93;3.83;;;14.40;96.80;;;;;;5016028;28;20033;-70
2023/03/30 08:41:26;;;;;;;7.47;3.60;;;14.50;96.70;;;;;;5026259;28;20146;-68
2023/03/30 08:43:57;;;;;;;8.27;3.65;;;14.50;96.60;;;;;;5024977;28;20077;-70
2023/03/30 08:46:23;;;;;;;5.03;3.67;;;14.60;96.50;;;;;;5041289;28;20029;-69
2023/03/30 08:48:51;;;;;;;6.30;3.95;;;14.60;96.50;;;;;;5023289;28;20107;-70
2023/03/30 08:51:26;;;;;;;7.90;3.67;;;14.70;96.40;;;;;;5024537;28;20029;-71
2023/03/30 08:54:01;;;;;;;6.82;3.20;;;14.80;96.40;;;;;;5014599;28;20056;-71
2023/03/30 08:56:39;;;;;;;5.72;3.50;;;14.90;96.20;;;;;;5024877;28;20160;-70
2023/03/30 08:59:19;;;;;;;8.82;3.75;;;15.00;96.00;;;;;;5030182;28;20129;-70
2023/03/30 09:02:02;;;;;;;5.63;3.40;;;15.10;95.90;;;;;;5020935;28;20031;-70
2023/03/30 09:05:00;;;;;;;8.93;3.83;;;15.20;95.80;;;;;;5017372;28;20065;-71
2023/03/30 09:07:48;;;;;;;4.68;3.00;;;15.40;95.70;;;;;;5031508;28;20033;-72
2023/03/30 09:10:15;;;;;;;6.72;3.45;;;15.60;95.60;;;;;;5025503;28;20106;-71
2023/03/30 09:12:51;;;;;;;6.40;3.42;;;15.70;95.60;;;;;;5013290;28;20041;-70
2023/03/30 09:15:29;;;;;;;7.32;2.72;;;15.90;95.30;;;;;;5022517;28;20040;-71
2023/03/30 09:18:03;;;;;;;6.95;2.85;;;16.00;95.10;;;;;;5023466;28;20061;-70
2023/03/30 09:20:31;;;;;;;5.40;2.97;;;16.20;94.90;;;;;;5015161;28;20022;-71
2023/03/30 09:23:01;;;;;;;6.85;2.88;;;16.30;94.80;;;;;;5027822;28;20501;-71
2023/03/30 09:25:52;;;;;;;9.13;3.35;;;16.40;94.70;;;;;;5028956;28;20056;-72
2023/03/30 09:28:39;;;;;;;6.75;2.70;;;16.50;94.50;;;;;;5022607;28;20099;-71
2023/03/30 09:31:14;;;;;;;4.82;2.70;;;16.60;94.50;;;;;;5030033;28;20037;-71
2023/03/30 09:33:48;;;;;;;5.20;2.65;;;16.80;94.30;;;;;;5026395;28;20038;-71
2023/03/30 09:36:17;;;;;;;4.00;2.58;;;16.90;94.20;;;;;;5020818;28;20025;-71
2023/03/30 09:38:44;;;;;;;5.07;2.80;;;16.90;94.00;;;;;;5027396;28;20373;-71
2023/03/30 09:41:31;;;;;;;6.85;2.58;;;17.10;93.90;;;;;;5027787;28;20025;-71
2023/03/30 09:43:58;;;;;;;4.68;2.75;;;17.20;93.80;;;;;;5023002;28;20079;-71
2023/03/30 09:46:24;;;;;;;5.30;2.92;;;17.30;93.50;;;;;;5023089;28;20075;-72
2023/03/30 09:48:50;;;;;;;7.07;3.00;;;17.30;93.30;;;;;;5029165;28;20433;-71
2023/03/30 09:51:24;;;;;;;4.82;2.60;;;17.40;93.20;;;;;;5015302;28;20030;-71
2023/03/30 09:53:58;;;;;;;5.05;3.03;;;17.40;93.10;;;;;;5017231;28;20053;-71
2023/03/30 09:56:30;;;;;;;6.10;2.50;;;17.50;93.00;;;;;;5017518;28;20040;-71
2023/03/30 09:58:55;;;;;;;6.15;3.08;;;17.50;92.90;;;;;;5011549;28;20034;-71
2023/03/30 10:01:23;;;;;;;6.93;2.42;;;17.60;92.80;;;;;;5019428;28;20034;-71
2023/03/30 10:04:25;;;;;;;3.72;2.25;;;17.70;92.80;;;;;;5025971;28;20033;-71
2023/03/30 10:06:50;;;;;;;7.03;2.85;;;17.80;92.80;;;;;;5054683;28;20029;-71
2023/03/30 10:09:21;;;;;;;6.90;2.90;;;17.80;92.50;;;;;;5044502;28;20036;-71
2023/03/30 10:11:53;;;;;;;8.75;3.03;;;17.80;92.30;;;;;;5034801;28;20028;-71
2023/03/30 10:14:30;;;;;;;8.38;2.85;;;17.80;92.20;;;;;;5013582;28;20445;-71
2023/03/30 10:16:57;;;;;;;5.75;2.67;;;17.80;92.20;;;;;;5022329;28;20033;-71
2023/03/30 10:19:24;;;;;;;6.65;3.17;;;17.80;92.10;;;;;;5011282;28;20092;-71
2023/03/30 10:21:57;;;;;;;6.68;2.45;;;17.80;92.10;;;;;;5011589;28;20489;-70
2023/03/30 10:24:30;;;;;;;6.35;2.50;;;17.80;92.10;;;;;;5010911;28;20626;-71
2023/03/30 10:27:10;;;;;;;5.55;2.45;;;17.70;92.00;;;;;;5015805;28;20057;-72
2023/03/30 10:29:36;;;;;;;6.10;2.67;;;17.80;92.00;;;;;;5017086;28;20042;-72
2023/03/30 10:32:09;;;;;;;4.07;2.60;;;17.80;92.00;;;;;;5010781;28;20129;-72
2023/03/30 10:34:41;;;;;;;4.55;2.72;;;17.80;92.00;;;;;;5026578;28;20112;-72
2023/03/30 10:37:31;;;;;;;6.03;2.38;;;17.70;92.00;;;;;;5020379;28;20073;-72
2023/03/30 10:40:00;;;;;;;4.72;2.58;;;17.80;92.00;;;;;;5028291;28;20072;-72
2023/03/30 10:42:29;;;;;;;7.35;3.30;;;17.70;92.00;;;;;;5027349;28;20052;-72
2023/03/30 10:44:59;;;;;;;6.47;3.35;;;17.80;92.00;;;;;;5014305;28;20488;-70
2023/03/30 10:47:25;;;;;;;8.38;2.60;;;17.80;92.10;;;;;;5025743;28;20025;-72
2023/03/30 10:50:02;;;;;;;7.03;2.70;;;17.90;92.10;;;;;;5012802;28;20034;-72
2023/03/30 10:52:38;;;;;;;5.68;2.45;;;17.90;92.00;;;;;;5019507;28;20155;-72
2023/03/30 10:55:14;;;;;;;4.72;2.28;;;18.00;92.00;;;;;;5019324;28;20029;-72
2023/03/30 10:57:59;;;;;;;4.95;2.53;;;18.00;91.90;;;;;;5027617;28;20056;-72
2023/03/30 11:00:24;;;;;;;;;;;18.10;91.90;;;;;;5021041;28;20064;-71
2023/03/30 11:02:56;;;;;;;5.72;2.30;;;18.20;92.10;;;;;;5022696;28;19921;-71
2023/03/30 11:05:30;;;;;;;6.07;2.63;;;18.20;91.90;;;;;;5021518;28;20125;-71
2023/03/30 11:08:00;;;;;;;9.73;2.50;;;18.30;91.90;;;;;;5019541;28;20029;-72
2023/03/30 11:10:31;;;;;;;4.90;2.75;;;18.40;91.80;;;;;;5023157;28;20295;-72
2023/03/30 11:13:09;;;;;;;6.80;2.83;;;18.40;91.70;;;;;;5025620;28;20101;-73
2023/03/30 11:15:51;;;;;;;5.80;2.55;;;18.50;91.60;;;;;;5021729;28;20025;-72
2023/03/30 11:18:24;;;;;;;5.65;3.20;;;18.50;91.60;;;;;;5014088;28;20044;-72
2023/03/30 11:21:16;;;;;;;7.27;2.63;;;18.50;91.60;;;;;;5033917;28;20034;-72
2023/03/30 11:23:55;;;;;;;8.43;2.80;;;18.60;91.60;;;;;;5021791;28;20681;-72
2023/03/30 11:26:36;;;;;;;5.32;2.88;;;18.60;91.40;;;;;;5019289;28;20057;-72
2023/03/30 11:29:17;;;;;;;7.05;2.38;;;18.70;91.40;;;;;;5031457;28;20037;-73
2023/03/30 11:32:07;;;;;;;5.40;2.67;;;18.80;91.30;;;;;;5016651;28;20033;-71
2023/03/30 11:35:00;;;;;;;8.05;2.65;;;18.80;91.40;;;;;;5023708;28;20382;-72
2023/03/30 11:37:42;;;;;;;5.47;2.85;;;18.90;91.30;;;;;;5024048;28;20685;-72
2023/03/30 11:40:15;;;;;;;7.30;3.10;;;19.00;91.30;;;;;;5023438;28;20529;-72
2023/03/30 11:42:42;;;;;;;6.43;2.90;;;19.00;91.20;;;;;;5013978;28;20497;-72
2023/03/30 11:45:38;;;;;;;4.35;2.95;;;19.00;91.00;;;;;;5020644;28;20037;-72
2023/03/30 11:48:19;;;;;;;4.82;2.38;;;19.20;91.10;;;;;;5023768;28;20042;-72
2023/03/30 11:51:00;;;;;;;5.35;2.70;;;19.30;91.00;;;;;;5022608;28;20240;-73
2023/03/30 11:53:53;;;;;;;5.30;2.85;;;19.30;90.90;;;;;;5028116;28;20489;-73
2023/03/30 11:56:37;;;;;;;6.40;3.30;;;19.30;90.90;;;;;;5033452;28;20030;-73
2023/03/30 11:59:30;;;;;;;5.65;2.95;;;19.30;90.90;;;;;;5019110;28;20034;-74
2023/03/30 12:02:28;;;;;;;5.18;2.85;;;19.30;90.80;;;;;;5020908;28;20068;-72
2023/03/30 12:04:56;;;;;;;8.65;4.28;;;19.20;90.80;;;;;;5022357;28;20038;-72
2023/03/30 12:07:30;;;;;;;9.45;2.95;;;19.10;90.90;;;;;;5024289;28;20029;-72
2023/03/30 12:10:05;;;;;;;5.88;3.22;;;19.10;90.90;;;;;;5021050;28;20575;-73
2023/03/30 12:12:37;;;;;;;6.30;3.20;;;19.10;90.90;;;;;;5022220;28;20574;-72
2023/03/30 12:15:21;;;;;;;9.57;3.17;;;19.10;90.90;;;;;;5026595;28;20032;-72
2023/03/30 12:17:52;;;;;;;7.33;4.00;;;19.10;91.00;;;;;;5019447;28;20057;-72
2023/03/30 12:20:33;;;;;;;6.63;2.80;;;19.10;91.00;;;;;;5029035;28;20379;-72
2023/03/30 12:23:08;;;;;;;7.47;2.92;;;19.10;91.00;;;;;;5029002;28;20069;-72
2023/03/30 12:25:55;;;;;;;8.07;2.47;;;19.00;91.00;;;;;;5013933;28;20381;-72
2023/03/30 12:28:24;;;;;;;5.50;3.10;;;19.00;91.10;;;;;;5026442;28;20033;-72
2023/03/30 12:30:58;;;;;;;6.18;2.70;;;19.00;91.10;;;;;;5022578;28;20026;-73
2023/03/30 12:33:35;;;;;;;6.43;3.22;;;19.10;91.20;;;;;;5015938;28;20092;-72
2023/03/30 12:36:22;;;;;;;7.53;2.67;;;19.10;91.10;;;;;;5027173;28;20032;-72
2023/03/30 12:38:48;;;;;;;5.55;2.45;;;19.10;91.10;;;;;;5016617;28;20036;-72
2023/03/30 12:41:19;;;;;;;9.23;2.97;;;19.10;91.10;;;;;;5013341;28;20030;-72
2023/03/30 12:44:20;;;;;;;8.73;2.60;;;19.20;91.00;;;;;;5025299;28;20045;-73
2023/03/30 12:47:00;;;;;;;5.38;2.72;;;19.20;91.00;;;;;;5029726;28;20029;-72
2023/03/30 12:49:39;;;;;;;10.25;2.90;;;19.30;90.90;;;;;;5038403;28;20124;-72
2023/03/30 12:52:31;;;;;;;6.13;3.10;;;19.40;90.80;;;;;;5022241;28;20140;-71
2023/03/30 12:55:41;;;;;;;8.77;2.75;;;19.50;90.60;;;;;;5025279;28;20033;-71
2023/03/30 12:58:35;;;;;;;5.63;2.10;;;19.60;90.50;;;;;;5022517;28;20109;-72
2023/03/30 13:01:32;;;;;;;7.03;2.72;;;19.70;90.40;;;;;;4992387;28;20052;-71
2023/03/30 13:04:06;;;;;;;4.80;2.92;;;19.70;90.40;;;;;;5034813;28;20460;-72
2023/03/30 13:06:38;;;;;;;7.72;2.85;;;19.80;90.30;;;;;;5029421;28;20064;-72
2023/03/30 13:09:18;;;;;;;7.78;2.90;;;19.80;90.20;;;;;;5026242;28;20033;-72
2023/03/30 13:11:53;;;;;;;5.80;3.10;;;19.90;90.10;;;;;;5043937;28;20025;-72